Time;durP1;ratioP1;P1;durP2;ratioP2;P2;SDS_P1;SDS_P2;PMS_P1;PMS_P2;Temp;Humidity;BMP_temperature;BMP_pressure;BME280_temperature;BME280_humidity;BME280_pressure;Samples;Min_cycle;Max_cycle;Signal;HPM_P1;HPM_P2
2022/07/06 00:01:20;;;;;;;3.00;2.77;;;16.30;99.90;;;;;;500184;237;28763;-69
2022/07/06 00:03:21;;;;;;;3.30;3.10;;;16.30;99.90;;;;;;499895;238;28795;-69
2022/07/06 00:05:23;;;;;;;3.20;2.90;;;16.30;99.90;;;;;;500000;238;28748;-69
2022/07/06 00:07:24;;;;;;;2.90;2.70;;;16.20;99.90;;;;;;500146;237;28789;-69
2022/07/06 00:09:25;;;;;;;4.10;2.83;;;16.20;99.90;;;;;;500083;237;29167;-73
2022/07/06 00:11:26;;;;;;;3.17;2.97;;;16.20;99.90;;;;;;500144;237;28901;-69
2022/07/06 00:13:28;;;;;;;3.20;2.50;;;16.10;99.90;;;;;;500165;237;28880;-70
2022/07/06 00:15:29;;;;;;;3.33;3.10;;;16.20;99.90;;;;;;500137;237;28888;-68
2022/07/06 00:17:30;;;;;;;3.07;2.83;;;16.10;99.90;;;;;;500154;237;28871;-69
2022/07/06 00:19:31;;;;;;;2.90;2.70;;;16.10;99.90;;;;;;500183;237;29260;-71
2022/07/06 00:21:33;;;;;;;3.27;3.07;;;16.10;99.90;;;;;;500145;237;29291;-68
2022/07/06 00:23:34;;;;;;;3.50;3.20;;;15.90;99.90;;;;;;500154;237;29386;-69
2022/07/06 00:25:35;;;;;;;3.80;2.53;;;16.00;99.90;;;;;;500100;238;28749;-68
2022/07/06 00:27:36;;;;;;;2.77;2.57;;;16.00;99.90;;;;;;500158;237;28781;-69
2022/07/06 00:29:38;;;;;;;3.40;3.10;;;15.90;99.90;;;;;;500164;237;28799;-73
2022/07/06 00:31:39;;;;;;;5.33;2.60;;;15.90;99.90;;;;;;500097;237;28841;-69
2022/07/06 00:33:40;;;;;;;3.00;2.67;;;15.80;99.90;;;;;;500171;237;28776;-69
2022/07/06 00:35:41;;;;;;;3.60;2.80;;;15.80;99.90;;;;;;500124;237;28892;-69
2022/07/06 00:37:43;;;;;;;3.17;2.60;;;15.80;99.90;;;;;;500136;238;28876;-69
2022/07/06 00:39:44;;;;;;;2.90;2.70;;;15.80;99.90;;;;;;500083;238;28814;-71
2022/07/06 00:41:45;;;;;;;4.10;3.40;;;15.70;99.90;;;;;;500137;237;28754;-68
2022/07/06 00:43:46;;;;;;;3.87;3.00;;;15.70;99.90;;;;;;500132;237;29338;-69
2022/07/06 00:45:48;;;;;;;2.80;2.60;;;15.70;99.90;;;;;;500131;238;30050;-69
2022/07/06 00:47:49;;;;;;;3.27;2.53;;;15.60;99.90;;;;;;500169;237;29220;-69
2022/07/06 00:52:10;;;;;;;3.90;2.83;;;15.50;99.90;;;;;;500119;238;28802;-69
2022/07/06 00:54:11;;;;;;;2.93;2.67;;;15.50;99.90;;;;;;500100;238;28789;-70
2022/07/06 00:56:12;;;;;;;3.90;2.70;;;15.40;99.90;;;;;;500049;238;28796;-71
2022/07/06 00:58:13;;;;;;;3.00;2.80;;;15.40;99.90;;;;;;500146;237;28760;-68
2022/07/06 01:00:15;;;;;;;3.40;3.10;;;15.40;99.90;;;;;;500162;237;28907;-69
2022/07/06 01:02:16;;;;;;;2.63;2.43;;;15.40;99.90;;;;;;500111;237;28790;-69
2022/07/06 01:04:17;;;;;;;2.83;2.70;;;15.40;99.90;;;;;;500132;237;28809;-69
2022/07/06 01:06:18;;;;;;;3.00;2.80;;;15.30;99.90;;;;;;500162;237;29334;-70
2022/07/06 01:08:20;;;;;;;2.90;2.70;;;15.30;99.90;;;;;;500076;238;29196;-69
2022/07/06 01:10:21;;;;;;;2.77;2.57;;;15.30;99.90;;;;;;500139;237;29329;-68
2022/07/06 01:12:22;;;;;;;2.40;2.30;;;15.30;99.90;;;;;;500126;237;29359;-71
2022/07/06 01:14:24;;;;;;;3.03;2.80;;;15.30;99.90;;;;;;500128;238;28873;-69
2022/07/06 01:16:25;;;;;;;2.97;2.70;;;15.30;99.90;;;;;;500166;238;28801;-70
2022/07/06 01:18:26;;;;;;;3.00;2.80;;;15.20;99.90;;;;;;500158;237;28756;-69
2022/07/06 01:20:27;;;;;;;2.87;2.60;;;15.10;99.90;;;;;;500200;237;28885;-69
2022/07/06 01:22:28;;;;;;;3.10;2.90;;;15.00;99.90;;;;;;500120;238;29444;-71
2022/07/06 01:24:30;;;;;;;5.90;3.13;;;15.00;99.90;;;;;;500150;237;28759;-68
2022/07/06 01:26:31;;;;;;;7.13;3.20;;;15.00;99.90;;;;;;500074;238;28887;-70
2022/07/06 01:28:32;;;;;;;2.80;2.63;;;15.10;99.90;;;;;;500157;237;29208;-69
2022/07/06 01:30:34;;;;;;;3.40;3.17;;;15.10;99.90;;;;;;500097;238;29278;-70
2022/07/06 01:32:35;;;;;;;3.20;2.87;;;15.00;99.90;;;;;;500087;238;29367;-68
2022/07/06 01:34:36;;;;;;;2.83;2.60;;;15.00;99.90;;;;;;500095;238;28849;-69
2022/07/06 01:36:37;;;;;;;2.70;2.50;;;15.00;99.90;;;;;;500076;237;28819;-71
2022/07/06 01:38:39;;;;;;;3.10;2.80;;;15.10;99.90;;;;;;500139;237;28761;-69
2022/07/06 01:40:40;;;;;;;2.60;2.40;;;14.90;99.90;;;;;;500129;237;28787;-69
2022/07/06 01:42:41;;;;;;;2.30;2.20;;;14.90;99.90;;;;;;500125;237;28887;-69
2022/07/06 01:44:42;;;;;;;2.63;2.50;;;14.90;99.90;;;;;;500016;238;28756;-69
2022/07/06 01:46:44;;;;;;;2.87;2.67;;;15.00;99.90;;;;;;500114;238;28838;-69
2022/07/06 01:48:45;;;;;;;4.40;2.70;;;14.90;99.90;;;;;;500144;237;28746;-68
2022/07/06 01:50:46;;;;;;;2.77;2.57;;;14.90;99.90;;;;;;500108;238;28780;-69
2022/07/06 01:52:47;;;;;;;2.73;2.53;;;14.80;99.90;;;;;;500166;237;29573;-71
2022/07/06 01:54:49;;;;;;;2.47;2.10;;;14.80;99.90;;;;;;500129;237;29268;-69
2022/07/06 01:56:50;;;;;;;3.00;2.73;;;14.70;99.90;;;;;;500140;237;29390;-70
2022/07/06 01:58:51;;;;;;;4.33;2.80;;;14.60;99.90;;;;;;500082;238;28746;-68
2022/07/06 02:00:52;;;;;;;3.40;3.10;;;14.60;99.90;;;;;;500128;238;28883;-69
2022/07/06 02:02:54;;;;;;;2.70;2.50;;;14.50;99.90;;;;;;500153;237;28879;-73
2022/07/06 02:04:55;;;;;;;2.93;2.20;;;14.60;99.90;;;;;;500119;237;28835;-69
2022/07/06 02:06:56;;;;;;;2.60;2.40;;;14.60;99.90;;;;;;500079;237;28809;-70
2022/07/06 02:08:57;;;;;;;3.00;2.80;;;14.60;99.90;;;;;;500149;237;28917;-69
2022/07/06 02:10:59;;;;;;;2.90;2.70;;;14.60;99.90;;;;;;500101;238;28820;-69
2022/07/06 02:13:00;;;;;;;3.10;2.90;;;14.60;99.90;;;;;;500151;238;28829;-71
2022/07/06 02:15:01;;;;;;;2.70;2.47;;;14.60;99.90;;;;;;500134;237;29230;-69
2022/07/06 02:17:02;;;;;;;2.93;2.73;;;14.60;99.90;;;;;;500082;238;29295;-70
2022/07/06 02:19:04;;;;;;;2.57;2.37;;;14.50;99.90;;;;;;500143;238;29323;-69
2022/07/06 02:21:05;;;;;;;2.73;2.53;;;14.50;99.90;;;;;;500139;237;29258;-69
2022/07/06 02:23:06;;;;;;;2.70;2.47;;;14.40;99.90;;;;;;500119;237;28821;-68
2022/07/06 02:25:07;;;;;;;2.70;2.50;;;14.40;99.90;;;;;;500135;237;28803;-69
2022/07/06 02:27:09;;;;;;;2.80;2.60;;;14.40;99.90;;;;;;500153;237;28568;-70
2022/07/06 02:29:10;;;;;;;3.97;3.10;;;14.30;99.90;;;;;;500146;237;28750;-68
2022/07/06 02:31:13;;;;;;;3.10;2.90;;;14.40;99.90;;;;;;500119;237;28811;-69
2022/07/06 02:33:12;;;;;;;2.77;2.60;;;14.30;99.90;;;;;;500076;238;28467;-69
2022/07/06 02:35:14;;;;;;;2.63;2.43;;;14.40;99.90;;;;;;500098;238;28787;-69
2022/07/06 02:37:15;;;;;;;2.70;2.50;;;14.40;99.90;;;;;;500160;237;28869;-70
2022/07/06 02:39:16;;;;;;;4.27;2.80;;;14.40;99.90;;;;;;500158;237;28439;-69
2022/07/06 02:41:17;;;;;;;2.80;2.60;;;14.30;99.90;;;;;;500132;237;29279;-69
2022/07/06 02:43:19;;;;;;;3.07;2.87;;;14.30;99.90;;;;;;500178;237;29364;-71
2022/07/06 02:45:20;;;;;;;3.33;2.80;;;14.20;99.90;;;;;;500196;238;28938;-69
2022/07/06 02:47:21;;;;;;;2.50;2.30;;;14.20;99.90;;;;;;500160;237;28608;-69
2022/07/06 02:49:22;;;;;;;4.77;2.80;;;14.20;99.90;;;;;;500143;238;28434;-69
2022/07/06 02:51:24;;;;;;;2.53;2.43;;;14.10;99.90;;;;;;500123;237;28863;-68
2022/07/06 02:53:25;;;;;;;3.90;2.83;;;14.10;99.90;;;;;;500151;238;29392;-71
2022/07/06 02:55:26;;;;;;;3.40;3.20;;;14.00;99.90;;;;;;500141;237;29201;-69
2022/07/06 02:57:27;;;;;;;2.80;2.60;;;14.00;99.90;;;;;;500142;237;28602;-69
2022/07/06 02:59:29;;;;;;;3.00;2.80;;;14.00;99.90;;;;;;500196;237;28840;-69
2022/07/06 03:01:30;;;;;;;3.70;2.80;;;14.00;99.90;;;;;;500155;237;28850;-68
2022/07/06 03:03:31;;;;;;;3.23;2.93;;;13.90;99.90;;;;;;500154;237;28956;-72
2022/07/06 03:05:32;;;;;;;3.07;2.87;;;13.90;99.90;;;;;;500154;238;28453;-68
2022/07/06 03:07:34;;;;;;;2.50;2.40;;;13.90;99.90;;;;;;500129;237;28412;-69
2022/07/06 03:09:35;;;;;;;2.43;2.30;;;13.90;99.90;;;;;;500189;237;28453;-69
2022/07/06 03:11:36;;;;;;;3.40;3.13;;;13.90;99.90;;;;;;500148;237;28907;-70
2022/07/06 03:13:37;;;;;;;2.73;2.53;;;13.90;99.90;;;;;;500198;237;29072;-73
2022/07/06 03:15:39;;;;;;;3.00;2.70;;;13.90;99.90;;;;;;500191;237;29024;-68
2022/07/06 03:17:40;;;;;;;2.60;2.40;;;13.80;99.90;;;;;;500127;238;29038;-69
2022/07/06 03:19:41;;;;;;;3.50;2.70;;;13.80;99.90;;;;;;500150;238;28445;-68
2022/07/06 03:21:43;;;;;;;2.60;2.40;;;13.80;99.90;;;;;;500207;237;28404;-69
2022/07/06 03:23:44;;;;;;;3.13;2.80;;;13.80;99.90;;;;;;500149;237;28403;-70
2022/07/06 03:25:45;;;;;;;2.47;2.27;;;13.80;99.90;;;;;;500182;237;28340;-69
2022/07/06 03:27:46;;;;;;;2.80;2.60;;;13.70;99.90;;;;;;500148;237;28854;-70
2022/07/06 03:29:48;;;;;;;3.10;2.40;;;13.70;99.90;;;;;;500156;237;29285;-68
2022/07/06 03:31:49;;;;;;;2.50;2.30;;;13.60;99.90;;;;;;500195;237;28942;-68
2022/07/06 03:33:50;;;;;;;2.50;2.40;;;13.60;99.90;;;;;;500169;237;28846;-71
2022/07/06 03:35:51;;;;;;;2.27;2.17;;;13.60;99.90;;;;;;500178;238;28252;-69
2022/07/06 03:37:53;;;;;;;4.87;2.80;;;13.60;99.90;;;;;;500157;237;28399;-70
2022/07/06 03:39:54;;;;;;;2.70;2.50;;;13.60;99.90;;;;;;500187;237;28420;-68
2022/07/06 03:41:55;;;;;;;2.80;2.60;;;13.70;99.90;;;;;;500170;237;28467;-69
2022/07/06 03:43:56;;;;;;;3.43;2.50;;;13.70;99.90;;;;;;500168;237;28816;-71
2022/07/06 03:45:58;;;;;;;3.13;2.63;;;13.70;99.90;;;;;;500218;238;28343;-70
2022/07/06 03:47:59;;;;;;;5.10;2.77;;;13.60;99.90;;;;;;500134;237;28402;-72
2022/07/06 03:50:00;;;;;;;2.40;2.30;;;13.60;99.90;;;;;;500160;237;28756;-69
2022/07/06 03:52:01;;;;;;;2.47;2.27;;;13.60;99.90;;;;;;500151;237;28490;-68
2022/07/06 03:54:03;;;;;;;2.83;2.63;;;13.50;99.90;;;;;;500151;237;28866;-72
2022/07/06 03:58:24;;;;;;;2.87;2.67;;;13.40;99.90;;;;;;500163;238;28367;-69
2022/07/06 04:00:25;;;;;;;4.00;2.80;;;13.40;99.90;;;;;;500163;237;28753;-69
2022/07/06 04:02:27;;;;;;;2.80;2.50;;;13.40;99.90;;;;;;500160;237;28688;-68
2022/07/06 04:04:28;;;;;;;2.60;2.40;;;13.40;99.90;;;;;;500118;238;28288;-69
2022/07/06 04:06:30;;;;;;;2.77;2.47;;;13.40;99.90;;;;;;500150;237;28163;-71
2022/07/06 04:08:30;;;;;;;2.73;2.50;;;13.40;99.90;;;;;;500169;237;28219;-69
2022/07/06 04:10:31;;;;;;;2.90;2.70;;;13.40;99.90;;;;;;500164;237;28366;-70
2022/07/06 04:12:33;;;;;;;2.70;2.60;;;13.40;99.90;;;;;;500171;237;28268;-69
2022/07/06 04:14:34;;;;;;;2.63;2.43;;;13.50;99.90;;;;;;500183;237;28132;-69
2022/07/06 04:16:35;;;;;;;2.47;2.30;;;13.40;99.90;;;;;;500187;237;30237;-70
2022/07/06 04:18:36;;;;;;;2.87;2.40;;;13.40;99.90;;;;;;500134;237;28128;-68
2022/07/06 04:20:38;;;;;;;3.90;3.13;;;13.40;99.90;;;;;;500142;237;28298;-71
2022/07/06 04:22:39;;;;;;;2.93;2.60;;;13.50;99.90;;;;;;500146;237;29787;-69
2022/07/06 04:24:40;;;;;;;3.00;2.80;;;13.50;99.90;;;;;;500143;237;28869;-69
2022/07/06 04:26:42;;;;;;;2.90;2.70;;;13.60;99.90;;;;;;500190;237;28882;-70
2022/07/06 04:28:43;;;;;;;2.73;2.50;;;13.60;99.90;;;;;;500153;238;28693;-69
2022/07/06 04:30:44;;;;;;;2.77;2.57;;;13.60;99.90;;;;;;500156;237;29072;-69
2022/07/06 04:32:45;;;;;;;3.30;2.80;;;13.60;99.90;;;;;;500162;237;29128;-68
2022/07/06 04:34:47;;;;;;;3.40;2.67;;;13.60;99.90;;;;;;500080;238;28554;-69
2022/07/06 04:36:48;;;;;;;3.17;2.97;;;13.60;99.90;;;;;;500148;237;28594;-70
2022/07/06 04:38:49;;;;;;;3.87;3.30;;;13.70;99.90;;;;;;500052;238;28449;-69
2022/07/06 04:40:50;;;;;;;6.07;3.10;;;13.70;99.90;;;;;;500154;238;28479;-69
2022/07/06 04:42:52;;;;;;;3.27;3.00;;;13.70;99.90;;;;;;500172;237;28388;-69
2022/07/06 04:44:53;;;;;;;4.63;3.53;;;13.70;99.90;;;;;;500150;237;28486;-69
2022/07/06 04:46:54;;;;;;;3.80;2.70;;;13.80;99.90;;;;;;500138;237;28253;-70
2022/07/06 04:48:55;;;;;;;2.87;2.77;;;13.80;99.90;;;;;;500147;237;28759;-69
2022/07/06 04:50:57;;;;;;;2.90;2.70;;;13.80;99.90;;;;;;500062;236;28800;-69
2022/07/06 04:52:58;;;;;;;3.37;3.07;;;13.70;99.90;;;;;;485870;245;30000;-69
2022/07/06 04:54:59;;;;;;;2.83;2.63;;;13.80;99.90;;;;;;501611;236;28747;-69
2022/07/06 04:57:00;;;;;;;2.97;2.77;;;13.80;99.90;;;;;;501589;237;28873;-71
2022/07/06 04:59:02;;;;;;;2.80;2.47;;;13.80;99.90;;;;;;501455;237;28441;-68
2022/07/06 05:01:03;;;;;;;3.00;2.80;;;13.80;99.90;;;;;;501615;237;28478;-70
2022/07/06 05:03:04;;;;;;;2.93;2.70;;;13.80;99.90;;;;;;501552;237;28464;-72
2022/07/06 05:05:05;;;;;;;3.13;2.70;;;13.80;99.90;;;;;;501586;237;28688;-68
2022/07/06 05:07:07;;;;;;;3.13;2.93;;;13.80;99.90;;;;;;501554;237;29442;-70
2022/07/06 05:09:08;;;;;;;5.43;3.50;;;13.70;99.90;;;;;;501622;237;28989;-69
2022/07/06 05:11:09;;;;;;;4.73;3.63;;;13.70;99.90;;;;;;501642;237;28823;-69
2022/07/06 05:13:10;;;;;;;2.73;2.60;;;13.80;99.90;;;;;;501575;237;28677;-71
2022/07/06 05:15:12;;;;;;;3.40;2.80;;;13.80;99.90;;;;;;501609;237;28367;-69
2022/07/06 05:17:13;;;;;;;4.23;3.30;;;13.70;99.90;;;;;;501594;237;28697;-69
2022/07/06 05:19:14;;;;;;;4.03;3.37;;;13.50;99.90;;;;;;501596;237;28411;-69
2022/07/06 05:21:16;;;;;;;4.80;3.60;;;13.50;99.90;;;;;;501648;237;28363;-69
2022/07/06 05:23:17;;;;;;;4.83;3.20;;;13.50;99.90;;;;;;501644;237;28720;-70
2022/07/06 05:25:18;;;;;;;5.30;3.37;;;13.60;99.90;;;;;;501545;237;28300;-68
2022/07/06 05:27:19;;;;;;;4.43;3.30;;;13.60;99.90;;;;;;501630;237;28387;-69
2022/07/06 05:29:21;;;;;;;5.40;3.80;;;13.60;99.90;;;;;;501547;237;28742;-72
2022/07/06 05:31:22;;;;;;;5.07;3.20;;;13.50;99.90;;;;;;501601;237;28688;-69
2022/07/06 05:33:23;;;;;;;3.30;3.10;;;13.50;99.90;;;;;;501563;237;28832;-70
2022/07/06 05:35:24;;;;;;;4.63;3.87;;;13.50;99.90;;;;;;501472;236;28417;-69
2022/07/06 05:37:26;;;;;;;3.60;3.40;;;13.60;99.90;;;;;;501518;237;28261;-69
2022/07/06 05:39:27;;;;;;;4.00;3.70;;;13.70;99.90;;;;;;501622;237;28302;-71
2022/07/06 05:41:28;;;;;;;3.60;3.40;;;13.70;99.90;;;;;;501564;237;28841;-69
2022/07/06 05:43:29;;;;;;;3.50;3.20;;;13.80;99.90;;;;;;501589;237;28959;-69
2022/07/06 05:45:31;;;;;;;3.20;2.93;;;13.80;99.90;;;;;;501535;237;28922;-68
2022/07/06 05:52:11;;;;;;;3.03;2.83;;;13.50;99.90;;;;;;501587;237;28785;-72
2022/07/06 05:54:12;;;;;;;3.33;2.83;;;13.70;99.90;;;;;;501639;237;29142;-69
2022/07/06 05:56:14;;;;;;;3.40;3.10;;;13.80;99.90;;;;;;501618;237;28639;-70
2022/07/06 05:58:15;;;;;;;10.00;3.60;;;13.70;99.90;;;;;;501546;237;28731;-69
2022/07/06 06:00:16;;;;;;;6.77;3.63;;;13.60;99.90;;;;;;501609;237;28702;-69
2022/07/06 06:02:17;;;;;;;4.27;3.10;;;13.70;99.90;;;;;;501638;237;28326;-72
2022/07/06 06:04:19;;;;;;;4.20;2.77;;;13.70;99.90;;;;;;501605;237;28280;-68
2022/07/06 06:06:20;;;;;;;3.13;2.93;;;13.80;99.90;;;;;;501627;237;28308;-69
2022/07/06 06:08:21;;;;;;;4.03;2.90;;;13.90;99.90;;;;;;501587;237;28399;-68
2022/07/06 06:10:23;;;;;;;3.10;2.90;;;13.90;99.90;;;;;;501650;237;28704;-69
2022/07/06 06:12:24;;;;;;;2.70;2.50;;;14.00;99.90;;;;;;501639;237;28715;-72
2022/07/06 06:14:25;;;;;;;5.50;2.70;;;13.90;99.90;;;;;;501584;237;28475;-69
2022/07/06 06:16:26;;;;;;;3.17;2.87;;;13.80;99.90;;;;;;501634;237;28895;-69
2022/07/06 06:18:27;;;;;;;3.03;2.83;;;13.90;99.90;;;;;;501650;237;29203;-68
2022/07/06 06:20:29;;;;;;;2.50;2.40;;;14.00;99.90;;;;;;501600;237;29141;-69
2022/07/06 06:22:30;;;;;;;6.10;3.17;;;14.00;99.90;;;;;;501634;237;29326;-72
2022/07/06 06:24:31;;;;;;;3.30;3.10;;;14.00;99.90;;;;;;501594;237;28668;-68
2022/07/06 06:26:32;;;;;;;2.80;2.60;;;14.00;99.90;;;;;;501579;237;28787;-70
2022/07/06 06:28:34;;;;;;;5.90;3.00;;;14.10;99.90;;;;;;501613;237;28742;-69
2022/07/06 06:30:35;;;;;;;3.30;3.00;;;14.00;99.90;;;;;;501547;237;28680;-68
2022/07/06 06:32:36;;;;;;;4.13;3.40;;;14.10;99.90;;;;;;501657;237;28316;-72
2022/07/06 06:34:37;;;;;;;3.30;2.93;;;14.10;99.90;;;;;;501635;237;28410;-69
2022/07/06 06:36:39;;;;;;;3.63;2.97;;;14.20;99.90;;;;;;501588;237;28484;-69
2022/07/06 06:38:40;;;;;;;2.53;2.33;;;14.10;99.90;;;;;;501606;237;28661;-69
2022/07/06 06:40:41;;;;;;;2.87;2.67;;;14.20;99.90;;;;;;501607;237;28755;-69
2022/07/06 06:42:42;;;;;;;3.23;2.67;;;14.40;99.90;;;;;;501562;237;29259;-71
2022/07/06 06:44:44;;;;;;;2.90;2.70;;;14.20;99.90;;;;;;501611;237;29221;-69
2022/07/06 06:46:45;;;;;;;10.30;4.13;;;14.30;99.90;;;;;;501612;237;28770;-70
2022/07/06 06:48:46;;;;;;;4.13;3.47;;;14.20;99.90;;;;;;501568;237;29364;-70
2022/07/06 06:50:48;;;;;;;3.37;3.07;;;14.20;99.90;;;;;;501620;237;29309;-69
2022/07/06 06:52:49;;;;;;;3.40;3.10;;;14.30;99.90;;;;;;501561;237;29178;-71
2022/07/06 06:54:50;;;;;;;3.93;2.90;;;14.30;99.90;;;;;;501619;237;28759;-69
2022/07/06 06:56:51;;;;;;;3.80;2.80;;;14.20;99.90;;;;;;501555;237;28695;-69
2022/07/06 06:58:53;;;;;;;3.07;2.87;;;14.30;99.90;;;;;;501530;237;28726;-72
2022/07/06 07:00:55;;;;;;;3.67;3.37;;;14.30;99.90;;;;;;501468;237;28730;-68
2022/07/06 07:02:55;;;;;;;3.73;3.33;;;14.40;99.90;;;;;;501556;237;28825;-68
2022/07/06 07:04:56;;;;;;;3.40;3.10;;;14.40;99.90;;;;;;501579;237;28681;-69
2022/07/06 07:06:58;;;;;;;6.67;4.10;;;14.50;99.90;;;;;;501607;237;28780;-69
2022/07/06 07:08:59;;;;;;;3.80;3.40;;;14.60;99.90;;;;;;501619;237;28798;-70
2022/07/06 07:11:00;;;;;;;4.53;3.70;;;14.40;99.90;;;;;;501581;237;28673;-69
2022/07/06 07:13:01;;;;;;;4.20;3.60;;;14.30;99.90;;;;;;501625;237;29200;-70
2022/07/06 07:15:03;;;;;;;3.17;2.97;;;14.40;99.90;;;;;;501556;237;29120;-68
2022/07/06 07:17:04;;;;;;;3.57;2.80;;;14.60;99.90;;;;;;501572;237;29183;-69
2022/07/06 07:19:05;;;;;;;5.37;3.30;;;14.50;99.90;;;;;;501624;237;30055;-70
2022/07/06 07:21:06;;;;;;;4.17;2.80;;;14.60;99.90;;;;;;501587;237;28712;-69
2022/07/06 07:23:08;;;;;;;4.37;2.70;;;14.70;99.90;;;;;;501617;237;28721;-69
2022/07/06 07:25:09;;;;;;;4.33;2.90;;;14.70;99.90;;;;;;501629;237;28665;-69
2022/07/06 07:27:10;;;;;;;2.70;2.50;;;14.80;99.90;;;;;;501571;237;28735;-69
2022/07/06 07:29:11;;;;;;;3.50;2.60;;;14.90;99.90;;;;;;501611;237;28717;-73
2022/07/06 07:31:13;;;;;;;2.73;2.53;;;15.20;99.90;;;;;;501627;237;28743;-69
2022/07/06 07:33:14;;;;;;;3.33;3.07;;;15.20;99.90;;;;;;501585;237;28703;-70
2022/07/06 07:35:15;;;;;;;2.97;2.77;;;15.20;99.90;;;;;;501627;237;28767;-69
2022/07/06 07:37:16;;;;;;;6.80;3.40;;;15.20;99.90;;;;;;501561;237;28705;-69
2022/07/06 07:39:18;;;;;;;5.07;2.87;;;15.10;99.90;;;;;;501634;237;29217;-72
2022/07/06 07:41:19;;;;;;;3.10;2.90;;;15.20;99.90;;;;;;501657;237;29163;-68
2022/07/06 07:43:20;;;;;;;3.00;2.70;;;15.30;99.90;;;;;;501606;237;28722;-69
2022/07/06 07:45:21;;;;;;;5.17;3.33;;;15.40;99.90;;;;;;501669;237;28702;-69
2022/07/06 07:47:23;;;;;;;5.63;3.37;;;15.20;99.90;;;;;;501664;237;28683;-70
2022/07/06 07:49:24;;;;;;;3.23;3.00;;;15.20;99.90;;;;;;501623;237;28779;-71
2022/07/06 07:51:25;;;;;;;3.50;3.20;;;15.20;99.90;;;;;;501662;237;28760;-70
2022/07/06 07:53:26;;;;;;;4.53;2.70;;;15.30;99.90;;;;;;501653;237;28760;-69
2022/07/06 07:55:28;;;;;;;3.40;3.10;;;15.40;99.90;;;;;;501630;237;28771;-69
2022/07/06 07:57:29;;;;;;;4.23;3.30;;;15.30;99.90;;;;;;501638;237;28747;-69
2022/07/06 07:59:30;;;;;;;7.53;3.87;;;15.40;99.90;;;;;;501592;236;29279;-70
2022/07/06 08:01:31;;;;;;;3.03;2.83;;;15.20;99.90;;;;;;501647;237;29151;-68
2022/07/06 08:03:33;;;;;;;3.80;3.33;;;15.30;99.90;;;;;;501653;237;28779;-68
2022/07/06 08:05:34;;;;;;;3.10;2.73;;;15.40;99.90;;;;;;501591;237;28825;-68
2022/07/06 08:07:35;;;;;;;3.63;3.00;;;15.50;99.90;;;;;;501632;237;28667;-68
2022/07/06 08:09:36;;;;;;;4.57;2.93;;;15.60;99.90;;;;;;501638;236;28702;-71
2022/07/06 08:11:38;;;;;;;2.90;2.70;;;15.80;99.90;;;;;;501592;237;28711;-69
2022/07/06 08:13:39;;;;;;;5.43;3.23;;;15.70;99.90;;;;;;501628;237;28781;-69
2022/07/06 08:15:40;;;;;;;6.37;2.83;;;15.60;99.90;;;;;;501623;237;28706;-69
2022/07/06 08:17:42;;;;;;;2.67;2.47;;;15.80;99.90;;;;;;501616;237;29129;-69
2022/07/06 08:19:43;;;;;;;2.97;2.73;;;15.80;99.90;;;;;;501638;237;29351;-71
2022/07/06 08:21:44;;;;;;;3.10;2.80;;;15.90;99.90;;;;;;501577;237;28789;-69
2022/07/06 08:23:45;;;;;;;2.63;2.43;;;15.90;99.90;;;;;;501578;237;28731;-69
2022/07/06 08:25:47;;;;;;;2.87;2.63;;;16.00;99.90;;;;;;501636;237;28708;-72
2022/07/06 08:27:48;;;;;;;3.00;2.70;;;16.10;99.90;;;;;;501566;237;28820;-69
2022/07/06 08:29:49;;;;;;;2.77;2.50;;;16.00;99.90;;;;;;501633;237;28689;-71
2022/07/06 08:31:50;;;;;;;3.20;2.80;;;15.90;99.90;;;;;;501628;237;28753;-69
2022/07/06 08:33:53;;;;;;;4.00;3.30;;;15.90;99.90;;;;;;501581;237;28695;-69
2022/07/06 08:35:53;;;;;;;2.90;2.70;;;15.80;99.90;;;;;;501600;237;28716;-73
2022/07/06 08:37:54;;;;;;;3.13;2.83;;;15.70;99.90;;;;;;501611;237;28663;-69
2022/07/06 08:39:55;;;;;;;3.03;2.70;;;15.70;99.90;;;;;;501592;237;28689;-70
2022/07/06 08:41:57;;;;;;;3.73;3.37;;;15.90;99.90;;;;;;501635;237;28773;-69
2022/07/06 08:43:58;;;;;;;3.10;2.90;;;16.00;99.90;;;;;;501593;237;28716;-69
2022/07/06 08:45:59;;;;;;;2.93;2.73;;;16.30;99.90;;;;;;501638;237;28724;-72
2022/07/06 08:48:00;;;;;;;4.70;3.10;;;16.60;99.90;;;;;;501618;237;29239;-70
2022/07/06 08:50:02;;;;;;;2.97;2.77;;;16.80;99.90;;;;;;501607;237;29174;-70
2022/07/06 08:52:03;;;;;;;5.07;3.13;;;16.80;99.90;;;;;;501445;237;29228;-70
2022/07/06 08:54:04;;;;;;;3.87;3.23;;;16.60;99.90;;;;;;501639;237;28693;-69
2022/07/06 08:56:05;;;;;;;3.00;2.80;;;16.60;99.90;;;;;;501594;237;28772;-72
2022/07/06 08:58:07;;;;;;;3.03;2.73;;;16.40;99.90;;;;;;501643;237;28655;-69
2022/07/06 09:00:08;;;;;;;2.93;2.70;;;16.30;99.90;;;;;;501609;237;28731;-70
2022/07/06 09:02:09;;;;;;;2.90;2.70;;;16.30;99.90;;;;;;501615;237;28762;-69
2022/07/06 09:04:10;;;;;;;4.00;2.90;;;16.50;99.90;;;;;;501639;237;28691;-69
2022/07/06 09:06:12;;;;;;;5.07;2.87;;;16.40;99.90;;;;;;501620;237;28799;-71
2022/07/06 09:08:13;;;;;;;3.50;2.83;;;16.60;99.90;;;;;;501576;237;28715;-71
2022/07/06 09:10:14;;;;;;;3.83;2.97;;;16.70;99.90;;;;;;501506;237;28783;-70
2022/07/06 09:12:15;;;;;;;3.23;2.90;;;16.70;99.90;;;;;;501447;237;28774;-71
2022/07/06 09:14:17;;;;;;;2.40;2.30;;;16.80;99.90;;;;;;501658;237;29144;-70
2022/07/06 09:16:18;;;;;;;2.50;2.40;;;17.00;99.90;;;;;;501662;237;29201;-71
2022/07/06 09:18:19;;;;;;;2.87;2.67;;;17.10;99.90;;;;;;501684;237;28655;-70
2022/07/06 09:20:20;;;;;;;3.40;3.10;;;17.10;99.90;;;;;;501670;237;28699;-69
2022/07/06 09:22:22;;;;;;;3.27;3.00;;;17.00;99.90;;;;;;497920;237;28741;-71
2022/07/06 09:24:24;;;;;;;4.70;2.93;;;16.80;99.90;;;;;;490620;241;28790;-70
2022/07/06 09:26:24;;;;;;;3.03;2.83;;;16.70;99.90;;;;;;490532;241;28860;-71
2022/07/06 09:28:25;;;;;;;3.75;2.60;;;16.70;99.90;;;;;;489048;241;36073;-69
2022/07/06 09:30:27;;;;;;;3.90;2.97;;;16.90;99.90;;;;;;490606;241;27632;-69
2022/07/06 09:32:28;;;;;;;4.73;2.53;;;17.00;99.90;;;;;;490540;241;28856;-69
2022/07/06 09:34:29;;;;;;;2.63;2.43;;;17.00;99.90;;;;;;490590;241;28898;-69
2022/07/06 09:36:30;;;;;;;2.63;2.43;;;17.20;99.90;;;;;;490580;241;29296;-70
2022/07/06 09:38:32;;;;;;;4.23;2.30;;;17.00;99.90;;;;;;490551;241;29349;-69
2022/07/06 09:40:33;;;;;;;3.53;2.80;;;17.00;99.90;;;;;;490557;242;28914;-70
2022/07/06 09:42:34;;;;;;;7.83;2.87;;;17.20;99.90;;;;;;490583;241;28821;-70
2022/07/06 09:44:36;;;;;;;3.63;2.70;;;17.30;99.90;;;;;;490568;241;28798;-69
2022/07/06 09:46:37;;;;;;;2.53;2.40;;;17.30;99.90;;;;;;490542;242;28822;-71
2022/07/06 09:48:38;;;;;;;2.47;2.37;;;17.30;99.90;;;;;;490562;241;28867;-69
2022/07/06 09:50:39;;;;;;;2.80;2.40;;;17.50;99.90;;;;;;490533;241;28842;-70
2022/07/06 09:52:40;;;;;;;3.60;2.80;;;17.60;99.90;;;;;;490564;241;29476;-72
2022/07/06 09:54:42;;;;;;;3.70;2.73;;;17.60;99.90;;;;;;490542;241;29311;-69
2022/07/06 09:56:43;;;;;;;3.13;2.83;;;17.50;99.90;;;;;;490509;241;29415;-70
2022/07/06 09:58:44;;;;;;;2.70;2.50;;;17.50;99.90;;;;;;490529;242;29388;-69
2022/07/06 10:00:45;;;;;;;2.80;2.60;;;17.20;99.90;;;;;;490543;242;28846;-69
2022/07/06 10:02:47;;;;;;;2.73;2.53;;;17.30;99.90;;;;;;490601;241;28969;-73
2022/07/06 10:04:48;;;;;;;2.80;2.60;;;17.30;99.90;;;;;;489860;242;28747;-68
2022/07/06 10:06:49;;;;;;;2.70;2.60;;;17.20;99.90;;;;;;494991;240;28849;-70
2022/07/06 10:08:50;;;;;;;2.80;2.63;;;17.00;99.90;;;;;;495032;240;28772;-70
2022/07/06 10:10:52;;;;;;;2.53;2.40;;;17.00;99.90;;;;;;494968;240;28758;-69
2022/07/06 10:12:53;;;;;;;2.80;2.60;;;17.00;99.90;;;;;;495051;240;28743;-72
2022/07/06 10:14:54;;;;;;;2.80;2.60;;;17.00;99.90;;;;;;495053;240;28807;-69
2022/07/06 10:16:56;;;;;;;2.80;2.47;;;17.20;99.90;;;;;;494986;240;28815;-70
2022/07/06 10:18:57;;;;;;;3.90;2.53;;;17.30;99.90;;;;;;495030;240;29192;-69
2022/07/06 10:20:58;;;;;;;2.43;2.33;;;17.70;99.90;;;;;;494967;240;29227;-69
2022/07/06 10:22:59;;;;;;;2.50;2.37;;;17.90;99.90;;;;;;494778;240;29329;-72
2022/07/06 10:25:00;;;;;;;3.80;2.30;;;17.80;99.90;;;;;;494942;240;28705;-69
2022/07/06 10:27:02;;;;;;;2.40;2.20;;;17.80;99.90;;;;;;495013;240;28739;-69
2022/07/06 10:29:03;;;;;;;2.83;2.10;;;17.90;99.90;;;;;;495019;240;28771;-69
2022/07/06 10:31:04;;;;;;;2.33;2.13;;;17.90;99.90;;;;;;495045;240;28735;-69
2022/07/06 10:33:06;;;;;;;2.27;2.07;;;18.00;99.90;;;;;;495059;240;28758;-72
2022/07/06 10:35:07;;;;;;;2.40;2.30;;;17.80;99.90;;;;;;497231;237;28668;-69
2022/07/06 10:37:08;;;;;;;5.10;2.03;;;17.80;99.90;;;;;;486595;243;28864;-70
2022/07/06 10:41:29;;;;;;;2.00;1.90;;;18.10;99.90;;;;;;488147;243;28917;-70
2022/07/06 10:43:30;;;;;;;1.50;1.40;;;17.90;99.90;;;;;;488155;243;28753;-69